Time;durP1;ratioP1;P1;durP2;ratioP2;P2;SDS_P1;SDS_P2;PMS_P1;PMS_P2;Temp;Humidity;BMP_temperature;BMP_pressure;BME280_temperature;BME280_humidity;BME280_pressure;Samples;Min_cycle;Max_cycle;Signal;HPM_P1;HPM_P2
2021/09/03 00:00:05;;;;;;;34.97;26.73;;;;;;;10.79;100.00;99743.28;2063562;28;20221;-77
2021/09/03 00:01:13;;;;;;;40.88;29.35;;;;;;;10.76;100.00;99747.28;2063953;28;20225;-76
2021/09/03 00:02:17;;;;;;;35.40;27.60;;;;;;;10.73;100.00;99747.06;2063589;28;20232;-77
2021/09/03 00:03:25;;;;;;;32.50;26.98;;;;;;;10.71;100.00;99744.69;2063419;28;20718;-76
2021/09/03 00:04:31;;;;;;;34.70;27.80;;;;;;;10.65;100.00;99740.44;2063828;28;20283;-77
2021/09/03 00:05:40;;;;;;;42.42;32.00;;;;;;;10.64;100.00;99744.19;2062283;28;20601;-77
2021/09/03 00:06:41;;;;;;;37.47;28.52;;;;;;;10.61;100.00;99739.44;2063816;28;20224;-76
2021/09/03 00:07:43;;;;;;;44.20;30.53;;;;;;;10.58;100.00;99739.97;2063546;28;20267;-77
2021/09/03 00:08:47;;;;;;;39.45;30.27;;;;;;;10.56;100.00;99739.47;2063406;28;20216;-76
2021/09/03 00:09:56;;;;;;;43.75;30.70;;;;;;;10.56;100.00;99738.66;2064093;28;20270;-77
2021/09/03 00:11:01;;;;;;;49.58;30.15;;;;;;;10.55;100.00;99740.53;2062892;28;20235;-76
2021/09/03 00:12:07;;;;;;;37.95;29.85;;;;;;;10.55;100.00;99739.75;2063410;28;20640;-76
2021/09/03 00:13:09;;;;;;;42.10;30.13;;;;;;;10.56;100.00;99742.13;2063520;28;20307;-77
2021/09/03 00:14:11;;;;;;;38.92;29.70;;;;;;;10.58;100.00;99739.19;2063339;28;20231;-76
2021/09/03 00:15:17;;;;;;;41.15;31.10;;;;;;;10.60;100.00;99742.34;2063468;28;20259;-77
2021/09/03 00:16:23;;;;;;;38.22;29.80;;;;;;;10.60;100.00;99743.19;2063292;28;20231;-77
2021/09/03 00:17:26;;;;;;;37.65;29.33;;;;;;;10.57;100.00;99738.38;2063120;28;20291;-77
2021/09/03 00:18:33;;;;;;;43.33;29.77;;;;;;;10.59;100.00;99746.09;2064081;28;20243;-76
2021/09/03 00:19:41;;;;;;;42.30;30.40;;;;;;;10.57;100.00;99743.72;2064106;28;20278;-77
2021/09/03 00:20:44;;;;;;;44.47;29.40;;;;;;;10.55;100.00;99737.88;2062787;28;20239;-77
2021/09/03 00:21:45;;;;;;;35.88;29.40;;;;;;;10.52;100.00;99741.09;2063503;28;20725;-76
2021/09/03 00:22:51;;;;;;;39.50;28.83;;;;;;;10.48;100.00;99738.19;2063105;28;20664;-77
2021/09/03 00:23:59;;;;;;;38.72;29.25;;;;;;;10.47;100.00;99735.78;2056371;28;20229;-76
2021/09/03 00:25:04;;;;;;;38.60;29.85;;;;;;;10.43;100.00;99738.22;2063311;28;20307;-77
2021/09/03 00:26:07;;;;;;;34.78;29.02;;;;;;;10.41;100.00;99734.22;2064069;28;20699;-76
2021/09/03 00:27:15;;;;;;;36.47;28.98;;;;;;;10.36;100.00;99734.28;2063495;28;20672;-76
2021/09/03 00:28:18;;;;;;;37.08;29.15;;;;;;;10.35;100.00;99730.03;2064155;28;20228;-77
2021/09/03 00:29:22;;;;;;;34.90;29.25;;;;;;;10.31;100.00;99731.63;2063345;28;20232;-77
2021/09/03 00:30:26;;;;;;;33.72;27.92;;;;;;;10.26;100.00;99732.47;2063090;28;20240;-76
2021/09/03 00:31:33;;;;;;;36.75;28.70;;;;;;;10.24;100.00;99729.28;2063532;28;20256;-77
2021/09/03 00:32:41;;;;;;;35.33;27.73;;;;;;;10.23;100.00;99732.22;2063899;28;20286;-77
2021/09/03 00:33:53;;;;;;;33.25;27.10;;;;;;;10.21;100.00;99745.81;2065000;28;20232;-77
2021/09/03 00:35:00;;;;;;;33.00;26.83;;;;;;;10.20;100.00;99738.88;2059125;28;20225;-76
2021/09/03 00:36:04;;;;;;;34.47;27.70;;;;;;;10.17;100.00;99734.91;2064825;28;20303;-77
2021/09/03 00:37:08;;;;;;;39.90;29.13;;;;;;;10.13;100.00;99735.72;2065723;28;20569;-76
2021/09/03 00:38:11;;;;;;;42.28;29.55;;;;;;;10.11;100.00;99736.00;2065323;28;20248;-77
2021/09/03 00:39:14;;;;;;;40.20;28.33;;;;;;;10.10;100.00;99729.09;2064903;28;20233;-76
2021/09/03 00:40:26;;;;;;;35.92;29.35;;;;;;;10.09;100.00;99730.16;2064935;28;20229;-77
2021/09/03 00:41:30;;;;;;;41.65;28.80;;;;;;;10.11;100.00;99735.22;2064307;28;20288;-76
2021/09/03 00:42:39;;;;;;;43.97;30.38;;;;;;;10.11;100.00;99729.88;2056710;28;20225;-77
2021/09/03 00:43:46;;;;;;;41.90;30.30;;;;;;;10.16;100.00;99727.16;2071436;28;20227;-77
2021/09/03 00:44:47;;;;;;;48.30;31.23;;;;;;;10.16;100.00;99728.00;2065720;28;20570;-76
2021/09/03 00:45:48;;;;;;;42.13;31.83;;;;;;;10.23;100.00;99737.56;2064749;28;20323;-76
2021/09/03 00:46:56;;;;;;;44.20;32.65;;;;;;;10.29;100.00;99734.59;2064927;28;20229;-76
2021/09/03 00:48:02;;;;;;;48.72;32.03;;;;;;;10.34;100.00;99733.78;2065308;28;20251;-76
2021/09/03 00:49:09;;;;;;;40.95;30.15;;;;;;;10.31;100.00;99736.97;2065470;28;20691;-76
2021/09/03 00:50:15;;;;;;;41.53;30.67;;;;;;;10.29;100.00;99731.13;2065063;28;20597;-76
2021/09/03 00:51:17;;;;;;;41.63;30.58;;;;;;;10.29;100.00;99731.91;2065478;28;20726;-77
2021/09/03 00:52:21;;;;;;;45.88;31.75;;;;;;;10.30;100.00;99736.19;2065554;28;20235;-76
2021/09/03 00:53:26;;;;;;;38.70;28.85;;;;;;;10.27;100.00;99725.28;2065133;28;20735;-76
2021/09/03 00:54:38;;;;;;;44.08;29.80;;;;;;;10.26;100.00;99726.34;2065498;28;20303;-77
2021/09/03 00:55:46;;;;;;;39.40;30.73;;;;;;;10.27;100.00;99734.06;2065043;28;20232;-76
2021/09/03 00:56:52;;;;;;;36.95;29.80;;;;;;;10.30;100.00;99727.38;2065392;28;20225;-76
2021/09/03 00:57:58;;;;;;;39.92;30.90;;;;;;;10.32;100.00;99730.56;2065152;28;20228;-76
2021/09/03 00:59:02;;;;;;;40.92;30.63;;;;;;;10.33;100.00;99726.81;2065104;28;20301;-77
2021/09/03 01:00:06;;;;;;;44.05;30.45;;;;;;;10.34;100.00;99723.91;2064758;28;20818;-77
2021/09/03 01:01:13;;;;;;;42.97;28.88;;;;;;;10.31;100.00;99728.97;2065218;28;20649;-77
2021/09/03 01:02:21;;;;;;;44.55;30.42;;;;;;;10.32;100.00;99731.34;2065634;28;20228;-77
2021/09/03 01:03:29;;;;;;;39.58;28.52;;;;;;;10.35;100.00;99724.69;2064947;28;20232;-77
2021/09/03 01:04:38;;;;;;;35.83;27.63;;;;;;;10.31;100.00;99728.97;2065503;28;20719;-76
2021/09/03 01:05:40;;;;;;;36.25;28.98;;;;;;;10.29;100.00;99731.13;2064658;28;20232;-77
2021/09/03 01:06:48;;;;;;;36.63;28.67;;;;;;;10.28;100.00;99729.53;2064810;28;20316;-77
2021/09/03 01:07:58;;;;;;;42.80;29.85;;;;;;;10.30;100.00;99722.03;2065554;28;20276;-77
2021/09/03 01:09:02;;;;;;;47.30;29.83;;;;;;;10.32;100.00;99723.34;2064999;28;20225;-77
2021/09/03 01:10:10;;;;;;;37.58;26.90;;;;;;;10.32;100.00;99725.22;2064179;28;20229;-76
2021/09/03 01:11:14;;;;;;;42.00;30.10;;;;;;;10.30;100.00;99722.84;2064346;28;20563;-76
2021/09/03 01:12:26;;;;;;;38.95;29.05;;;;;;;10.29;100.00;99717.78;2065321;28;20282;-77
2021/09/03 01:13:33;;;;;;;41.88;29.67;;;;;;;10.27;100.00;99722.63;2065072;28;20319;-77
2021/09/03 01:14:34;;;;;;;39.60;29.05;;;;;;;10.26;100.00;99721.03;2065345;28;20768;-77
2021/09/03 01:15:43;;;;;;;44.97;30.13;;;;;;;10.28;100.00;99722.31;2065625;28;20602;-76
2021/09/03 01:16:50;;;;;;;39.40;28.98;;;;;;;10.26;100.00;99713.81;2064952;28;20224;-77
2021/09/03 01:17:59;;;;;;;40.97;30.00;;;;;;;10.27;100.00;99718.06;2064743;28;20308;-77
2021/09/03 01:19:01;;;;;;;38.67;29.48;;;;;;;10.31;100.00;99715.63;2064170;28;20279;-77
2021/09/03 01:20:10;;;;;;;37.20;29.45;;;;;;;10.29;100.00;99715.13;2064628;28;20229;-77
2021/09/03 01:21:13;;;;;;;35.72;29.17;;;;;;;10.29;100.00;99715.13;2064029;28;20352;-77
2021/09/03 01:22:22;;;;;;;41.67;29.55;;;;;;;10.27;100.00;99710.06;2057517;28;20376;-77
2021/09/03 01:23:23;;;;;;;41.67;29.67;;;;;;;10.30;100.00;99716.72;2064308;28;20224;-77
2021/09/03 01:24:28;;;;;;;39.77;30.00;;;;;;;10.29;100.00;99707.13;2064645;28;20311;-78
2021/09/03 01:25:37;;;;;;;38.80;30.15;;;;;;;10.31;100.00;99713.75;2064471;28;20224;-78
2021/09/03 01:26:42;;;;;;;37.97;27.63;;;;;;;10.29;100.00;99713.25;2064398;28;20244;-78
2021/09/03 01:27:46;;;;;;;32.00;25.60;;;;;;;10.27;100.00;99709.28;2064535;28;20307;-78
2021/09/03 01:28:54;;;;;;;37.50;27.60;;;;;;;10.27;100.00;99706.59;2065375;28;20287;-78
2021/09/03 01:29:59;;;;;;;33.28;26.92;;;;;;;10.24;100.00;99712.47;2064888;28;20221;-77
2021/09/03 01:31:03;;;;;;;39.30;27.63;;;;;;;10.23;100.00;99710.88;2064741;28;20224;-78
2021/09/03 01:32:07;;;;;;;40.40;26.75;;;;;;;10.19;100.00;99706.09;2064590;28;20307;-78
2021/09/03 01:33:14;;;;;;;38.03;27.75;;;;;;;10.17;100.00;99705.56;2063867;28;20236;-77
2021/09/03 01:34:23;;;;;;;38.92;28.33;;;;;;;10.16;100.00;99704.00;2064686;28;20687;-78
2021/09/03 01:35:28;;;;;;;34.13;28.10;;;;;;;10.15;100.00;99710.38;2064775;28;20251;-78
2021/09/03 01:36:32;;;;;;;34.63;27.45;;;;;;;10.14;100.00;99700.00;2064619;28;20227;-77
2021/09/03 01:37:46;;;;;;;38.58;27.35;;;;;;;10.15;100.00;99705.03;2057076;28;20221;-78
2021/09/03 01:38:49;;;;;;;33.03;27.23;;;;;;;10.16;100.00;99704.00;2064284;28;20231;-78
2021/09/03 01:39:54;;;;;;;38.22;27.63;;;;;;;10.15;100.00;99705.03;2072085;28;20228;-77
2021/09/03 01:41:00;;;;;;;38.20;28.63;;;;;;;10.14;100.00;99695.44;2064569;28;20251;-78
2021/09/03 01:42:10;;;;;;;34.45;27.27;;;;;;;10.15;100.00;99704.25;2057161;28;20222;-78
2021/09/03 01:43:13;;;;;;;32.35;27.00;;;;;;;10.13;100.00;99701.84;2064187;28;20232;-78
2021/09/03 01:44:22;;;;;;;36.30;27.42;;;;;;;10.10;100.00;99698.97;2063971;28;20221;-78
2021/09/03 01:45:29;;;;;;;35.92;26.98;;;;;;;10.10;100.00;99702.41;2064198;28;20301;-77
2021/09/03 01:46:33;;;;;;;33.88;26.85;;;;;;;10.08;100.00;99696.56;2065037;28;20687;-78
2021/09/03 01:47:34;;;;;;;33.88;26.52;;;;;;;10.11;100.00;99700.56;2065214;28;20387;-78
2021/09/03 01:48:46;;;;;;;33.27;27.20;;;;;;;10.09;100.00;99698.16;2065270;28;20243;-77
2021/09/03 01:49:49;;;;;;;32.75;26.15;;;;;;;10.08;100.00;99699.25;2064932;28;20596;-78
2021/09/03 01:51:01;;;;;;;38.83;27.35;;;;;;;10.10;100.00;99697.09;2064565;28;20278;-78
2021/09/03 01:52:06;;;;;;;36.42;27.45;;;;;;;10.10;100.00;99701.63;2065068;28;20229;-78
2021/09/03 01:53:11;;;;;;;31.52;26.40;;;;;;;10.12;100.00;99694.13;2064637;28;20228;-78
2021/09/03 01:54:13;;;;;;;35.00;26.15;;;;;;;10.12;100.00;99688.81;2064432;28;20738;-78
2021/09/03 01:55:21;;;;;;;38.78;26.70;;;;;;;10.11;100.00;99682.69;2064456;28;20299;-77
2021/09/03 01:56:24;;;;;;;38.63;28.02;;;;;;;10.14;100.00;99689.31;2064637;28;20320;-77
2021/09/03 01:57:33;;;;;;;40.67;27.33;;;;;;;10.15;100.00;99690.91;2064818;28;20232;-77
2021/09/03 01:58:39;;;;;;;36.33;28.30;;;;;;;10.14;100.00;99682.13;2064825;28;20229;-78
2021/09/03 01:59:47;;;;;;;35.38;26.90;;;;;;;10.16;100.00;99681.84;2064389;28;20248;-78
2021/09/03 02:00:59;;;;;;;31.83;27.10;;;;;;;10.17;100.00;99689.59;2064935;28;20546;-78
2021/09/03 02:02:00;;;;;;;40.47;27.80;;;;;;;10.17;100.00;99681.56;2063743;28;20687;-77
2021/09/03 02:03:05;;;;;;;40.13;27.17;;;;;;;10.18;100.00;99682.38;2064224;28;20263;-78
2021/09/03 02:04:07;;;;;;;36.85;27.17;;;;;;;10.16;100.00;99674.66;2064316;28;20221;-78
2021/09/03 02:05:14;;;;;;;31.33;26.95;;;;;;;10.18;100.00;99671.72;2063822;28;20662;-78
2021/09/03 02:06:18;;;;;;;35.40;27.98;;;;;;;10.19;100.00;99673.28;2064350;28;20240;-78
2021/09/03 02:07:29;;;;;;;34.42;26.02;;;;;;;10.23;100.00;99670.88;2063895;28;20286;-77
2021/09/03 02:08:39;;;;;;;36.05;27.48;;;;;;;10.23;100.00;99677.03;2064849;28;20235;-78
2021/09/03 02:09:41;;;;;;;31.20;27.15;;;;;;;10.24;100.00;99677.81;2064212;28;20278;-78
2021/09/03 02:10:45;;;;;;;37.65;26.98;;;;;;;10.26;100.00;99673.03;2064053;28;20232;-78
2021/09/03 02:11:52;;;;;;;31.85;26.45;;;;;;;10.25;100.00;99668.72;2056702;28;20772;-78
2021/09/03 02:13:00;;;;;;;34.00;26.27;;;;;;;10.27;100.00;99674.59;2064012;28;20231;-78
2021/09/03 02:14:06;;;;;;;32.15;25.65;;;;;;;10.25;100.00;99663.41;2064902;28;20224;-78
2021/09/03 02:15:14;;;;;;;33.53;27.85;;;;;;;10.27;100.00;99663.94;2064517;28;20232;-78
2021/09/03 02:16:21;;;;;;;36.83;28.40;;;;;;;10.27;100.00;99662.06;2064804;28;20233;-78
2021/09/03 02:17:24;;;;;;;37.47;28.17;;;;;;;10.30;100.00;99660.72;2064208;28;20228;-77
2021/09/03 02:18:26;;;;;;;36.53;29.55;;;;;;;10.33;100.00;99657.47;2064798;28;20236;-78
2021/09/03 02:19:27;;;;;;;38.10;30.35;;;;;;;10.34;100.00;99662.56;2064862;28;20267;-78
2021/09/03 02:20:33;;;;;;;41.25;30.58;;;;;;;10.37;100.00;99656.66;2063992;28;20224;-78
2021/09/03 02:21:41;;;;;;;41.70;29.83;;;;;;;10.39;100.00;99656.38;2063909;28;20236;-77
2021/09/03 02:22:52;;;;;;;37.67;28.70;;;;;;;10.40;100.00;99656.06;2064555;28;20718;-78
2021/09/03 02:24:01;;;;;;;43.70;30.25;;;;;;;10.40;100.00;99652.63;2062560;28;20224;-78
2021/09/03 02:25:06;;;;;;;42.72;28.85;;;;;;;10.40;100.00;99655.28;2064157;28;20286;-78
2021/09/03 02:26:08;;;;;;;41.40;30.27;;;;;;;10.40;100.00;99648.06;2064183;28;20228;-78
2021/09/03 02:27:16;;;;;;;41.57;28.73;;;;;;;10.41;100.00;99646.19;2064966;28;20304;-78
2021/09/03 02:28:24;;;;;;;41.53;29.08;;;;;;;10.41;100.00;99643.53;2064955;28;20224;-77
2021/09/03 02:29:29;;;;;;;36.75;28.65;;;;;;;10.40;100.00;99652.63;2064446;28;20260;-77
2021/09/03 02:30:42;;;;;;;41.92;29.70;;;;;;;10.46;100.00;99640.84;2064204;28;20232;-77
2021/09/03 02:31:47;;;;;;;40.40;29.83;;;;;;;10.54;100.00;99650.09;2049382;28;20225;-77
2021/09/03 02:32:59;;;;;;;37.05;28.63;;;;;;;10.53;100.00;99643.19;2048213;28;20332;-78
2021/09/03 02:34:00;;;;;;;43.50;29.42;;;;;;;10.57;100.00;99642.31;2063805;28;20719;-77
2021/09/03 02:35:09;;;;;;;37.80;28.73;;;;;;;10.57;100.00;99637.00;2063935;28;20299;-78
2021/09/03 02:36:14;;;;;;;41.33;29.95;;;;;;;10.62;100.00;99638.81;2063640;28;20319;-77
2021/09/03 02:37:24;;;;;;;41.88;29.60;;;;;;;10.67;100.00;99636.88;2064507;28;20290;-77
2021/09/03 02:38:31;;;;;;;38.70;29.00;;;;;;;10.68;100.00;99633.13;2064383;28;20233;-77
2021/09/03 02:39:41;;;;;;;36.67;28.95;;;;;;;10.68;100.00;99630.47;2064549;28;20609;-77
2021/09/03 02:40:49;;;;;;;39.35;28.92;;;;;;;10.68;100.00;99641.13;2064349;28;20237;-77
2021/09/03 02:41:52;;;;;;;38.90;28.35;;;;;;;10.65;100.00;99633.72;2063297;28;20308;-77
2021/09/03 02:42:58;;;;;;;38.30;29.20;;;;;;;10.64;100.00;99637.47;2063964;28;20220;-77
2021/09/03 02:44:01;;;;;;;33.42;28.90;;;;;;;10.65;100.00;99633.72;2063940;28;20266;-77
2021/09/03 02:45:11;;;;;;;35.88;29.08;;;;;;;10.65;100.00;99627.56;2064060;28;20311;-78
2021/09/03 02:46:15;;;;;;;41.35;31.50;;;;;;;10.62;100.00;99623.59;2063214;28;20233;-78
2021/09/03 02:47:25;;;;;;;40.53;29.58;;;;;;;10.65;100.00;99632.91;2063820;28;20275;-77
2021/09/03 02:48:32;;;;;;;35.85;28.38;;;;;;;10.67;100.00;99628.88;2064119;28;20754;-78
2021/09/03 02:49:34;;;;;;;37.83;28.30;;;;;;;10.67;100.00;99626.22;2063857;28;20232;-78
2021/09/03 02:50:37;;;;;;;41.35;28.63;;;;;;;10.67;100.00;99631.53;2064576;28;20585;-77
2021/09/03 02:51:46;;;;;;;35.97;27.75;;;;;;;10.66;100.00;99627.28;2064309;28;20312;-77
2021/09/03 02:52:52;;;;;;;40.33;28.67;;;;;;;10.63;100.00;99619.06;2064536;28;20231;-78
2021/09/03 02:53:57;;;;;;;37.92;29.13;;;;;;;10.62;100.00;99623.59;2064239;28;20233;-78
2021/09/03 02:55:08;;;;;;;39.33;29.25;;;;;;;10.60;100.00;99625.78;2064398;28;20223;-78
2021/09/03 02:56:15;;;;;;;43.60;30.33;;;;;;;10.62;100.00;99623.59;2063173;28;20312;-77
2021/09/03 02:57:23;;;;;;;39.65;30.17;;;;;;;10.66;100.00;99629.16;2064116;28;20255;-78
2021/09/03 02:58:26;;;;;;;39.00;30.48;;;;;;;10.64;100.00;99626.00;2056034;28;20349;-77
2021/09/03 02:59:34;;;;;;;36.70;29.40;;;;;;;10.62;100.00;99626.28;2056192;28;20323;-77
2021/09/03 03:00:39;;;;;;;44.20;30.08;;;;;;;10.59;100.00;99621.47;2061610;28;20285;-78
2021/09/03 03:01:46;;;;;;;42.17;29.50;;;;;;;10.62;100.00;99634.28;2063971;28;20680;-77
2021/09/03 03:02:52;;;;;;;39.28;28.92;;;;;;;10.60;100.00;99624.94;2064425;28;20247;-78
2021/09/03 03:04:01;;;;;;;41.58;29.40;;;;;;;10.60;100.00;99623.09;2063902;28;20252;-77
2021/09/03 03:05:03;;;;;;;39.83;28.77;;;;;;;10.60;100.00;99630.28;2070865;28;20717;-78
2021/09/03 03:06:05;;;;;;;43.53;29.80;;;;;;;10.57;100.00;99620.97;2063633;28;20221;-78
2021/09/03 03:07:08;;;;;;;37.08;28.27;;;;;;;10.57;100.00;99626.31;2055864;28;20221;-77
2021/09/03 03:08:14;;;;;;;40.63;28.80;;;;;;;10.56;100.00;99624.72;2063037;28;20236;-78
2021/09/03 03:09:20;;;;;;;48.47;29.38;;;;;;;10.55;100.00;99615.13;2064396;28;20221;-77
2021/09/03 03:10:33;;;;;;;46.67;29.25;;;;;;;10.56;100.00;99615.94;2063067;28;20232;-77
2021/09/03 03:11:43;;;;;;;40.67;29.30;;;;;;;10.52;100.00;99622.91;2055483;28;20248;-78
2021/09/03 03:12:53;;;;;;;42.30;28.90;;;;;;;10.50;100.00;99620.50;2063852;28;20225;-78
2021/09/03 03:14:02;;;;;;;37.80;28.45;;;;;;;10.49;100.00;99618.91;2064061;28;20274;-77
2021/09/03 03:15:11;;;;;;;35.63;28.52;;;;;;;10.47;100.00;99623.75;2064361;28;20240;-78
2021/09/03 03:16:14;;;;;;;39.28;28.65;;;;;;;10.45;100.00;99621.38;2063970;28;20585;-77
2021/09/03 03:17:25;;;;;;;40.92;29.27;;;;;;;10.43;100.00;99617.41;2064443;28;20224;-78
2021/09/03 03:18:28;;;;;;;39.25;29.08;;;;;;;10.41;100.00;99627.53;2063413;28;20232;-78
2021/09/03 03:19:39;;;;;;;39.85;28.15;;;;;;;10.42;100.00;99629.13;2063719;28;20227;-77
2021/09/03 03:20:42;;;;;;;38.15;28.83;;;;;;;10.40;100.00;99624.06;2063972;28;20244;-77
2021/09/03 03:21:43;;;;;;;38.33;28.77;;;;;;;10.44;100.00;99622.44;2063586;28;20228;-78
2021/09/03 03:22:46;;;;;;;39.97;29.50;;;;;;;10.43;100.00;99625.41;2063802;28;20676;-78
2021/09/03 03:23:57;;;;;;;43.17;29.17;;;;;;;10.40;100.00;99623.28;2064110;28;20229;-77
2021/09/03 03:25:03;;;;;;;35.60;28.52;;;;;;;10.40;100.00;99631.28;2063504;28;20764;-78
2021/09/03 03:26:13;;;;;;;35.55;27.73;;;;;;;10.37;100.00;99629.19;2064599;28;20220;-77
2021/09/03 03:27:21;;;;;;;41.85;29.27;;;;;;;10.35;100.00;99618.00;2064062;28;20710;-77
2021/09/03 03:28:24;;;;;;;32.90;27.95;;;;;;;10.34;100.00;99624.41;2063025;28;20605;-77
2021/09/03 03:29:28;;;;;;;38.03;27.67;;;;;;;10.36;100.00;99633.72;2063775;28;20243;-78
2021/09/03 03:30:32;;;;;;;38.03;27.30;;;;;;;10.34;100.00;99621.75;2064449;28;20229;-77
2021/09/03 03:31:39;;;;;;;41.65;27.35;;;;;;;10.31;100.00;99627.63;2064414;28;20224;-77
2021/09/03 03:32:43;;;;;;;41.92;28.67;;;;;;;10.34;100.00;99625.22;2063925;28;20239;-78
2021/09/03 03:33:46;;;;;;;41.40;28.02;;;;;;;10.31;100.00;99617.75;2063673;28;20232;-77
2021/09/03 03:34:49;;;;;;;45.88;29.00;;;;;;;10.32;100.00;99631.88;2063683;28;20224;-78
2021/09/03 03:35:51;;;;;;;39.60;28.38;;;;;;;10.34;100.00;99622.53;2064264;28;20232;-78
2021/09/03 03:36:53;;;;;;;37.28;28.33;;;;;;;10.36;100.00;99627.59;2063928;28;20256;-77
2021/09/03 03:37:59;;;;;;;41.00;28.88;;;;;;;10.35;100.00;99628.66;2064117;28;20240;-78
2021/09/03 03:39:03;;;;;;;38.63;28.38;;;;;;;10.33;100.00;99625.47;2064177;28;20228;-78
2021/09/03 03:40:07;;;;;;;37.95;28.65;;;;;;;10.35;100.00;99623.34;2064195;28;20225;-77
2021/09/03 03:41:14;;;;;;;37.80;28.83;;;;;;;10.35;100.00;99624.13;2063672;28;20235;-77
2021/09/03 03:42:21;;;;;;;41.13;29.85;;;;;;;10.35;100.00;99616.13;2063694;28;20232;-78
2021/09/03 03:43:24;;;;;;;42.85;28.92;;;;;;;10.37;100.00;99621.97;2064020;28;20239;-77
2021/09/03 03:44:25;;;;;;;38.58;29.70;;;;;;;10.38;100.00;99610.22;2063401;28;20240;-78
2021/09/03 03:45:33;;;;;;;39.72;29.08;;;;;;;10.40;100.00;99620.59;2055794;28;20237;-77
2021/09/03 03:46:39;;;;;;;39.47;29.48;;;;;;;10.42;100.00;99605.94;2063591;28;20224;-75
2021/09/03 03:47:50;;;;;;;41.88;29.05;;;;;;;10.46;100.00;99614.16;2063215;28;20307;-74
2021/09/03 03:48:57;;;;;;;41.67;28.33;;;;;;;10.47;100.00;99610.41;2063174;28;20220;-76
2021/09/03 03:50:05;;;;;;;39.70;29.73;;;;;;;10.49;100.00;99610.91;2064077;28;20271;-73
2021/09/03 03:51:06;;;;;;;40.20;28.98;;;;;;;10.51;100.00;99605.28;2063607;28;20266;-74
2021/09/03 03:52:11;;;;;;;41.87;29.13;;;;;;;10.52;100.00;99607.69;2063023;28;20275;-75
2021/09/03 03:53:16;;;;;;;40.28;29.83;;;;;;;10.57;100.00;99606.84;2063511;28;20456;-74
2021/09/03 03:54:24;;;;;;;41.60;29.73;;;;;;;10.56;100.00;99607.94;2064223;28;20283;-74
2021/09/03 03:55:28;;;;;;;39.33;29.50;;;;;;;10.58;100.00;99613.78;2063836;28;20243;-74
2021/09/03 03:56:41;;;;;;;43.67;29.63;;;;;;;10.60;100.00;99615.09;2064090;28;20274;-74
2021/09/03 03:57:43;;;;;;;36.72;29.20;;;;;;;10.59;100.00;99612.69;2063434;28;20239;-74
2021/09/03 03:58:47;;;;;;;37.47;29.17;;;;;;;10.58;100.00;99606.56;2063398;28;20231;-74
2021/09/03 03:59:56;;;;;;;42.90;30.10;;;;;;;10.60;100.00;99612.44;2063538;28;20240;-74
2021/09/03 04:01:01;;;;;;;41.03;29.38;;;;;;;10.64;100.00;99616.09;2063778;28;20224;-76
2021/09/03 04:02:06;;;;;;;40.65;28.73;;;;;;;10.65;100.00;99608.91;2063669;28;20785;-73
2021/09/03 04:03:14;;;;;;;41.67;30.45;;;;;;;10.66;100.00;99619.28;2063121;28;20232;-76
2021/09/03 04:04:17;;;;;;;39.65;29.30;;;;;;;10.68;100.00;99616.31;2063622;28;20224;-75
2021/09/03 04:05:22;;;;;;;41.78;30.95;;;;;;;10.66;100.00;99613.94;2055628;28;20283;-75
2021/09/03 04:06:23;;;;;;;43.67;30.27;;;;;;;10.74;100.00;99618.66;2063138;28;20232;-75
2021/09/03 04:07:28;;;;;;;39.57;30.90;;;;;;;10.71;100.00;99621.91;2063305;28;20231;-75
2021/09/03 04:08:37;;;;;;;36.58;28.98;;;;;;;10.73;100.00;99618.97;2063384;28;20228;-75
2021/09/03 04:09:46;;;;;;;43.63;31.70;;;;;;;10.71;100.00;99616.56;2063688;28;20634;-75
2021/09/03 04:10:50;;;;;;;45.00;31.42;;;;;;;10.75;100.00;99614.91;2064153;28;20296;-75
2021/09/03 04:11:56;;;;;;;42.05;30.75;;;;;;;10.76;100.00;99615.72;2064065;28;20290;-75
2021/09/03 04:12:57;;;;;;;46.40;30.45;;;;;;;10.80;100.00;99610.63;2063778;28;20660;-75
2021/09/03 04:14:02;;;;;;;37.33;28.90;;;;;;;10.80;100.00;99613.28;2064121;28;20236;-76
2021/09/03 04:15:07;;;;;;;40.58;29.55;;;;;;;10.80;100.00;99606.06;2063412;28;20223;-77
2021/09/03 04:16:14;;;;;;;47.70;31.20;;;;;;;10.79;100.00;99606.38;2055938;28;20225;-76
2021/09/03 04:17:24;;;;;;;47.15;31.42;;;;;;;10.82;100.00;99614.59;2063406;28;20782;-74
2021/09/03 04:18:33;;;;;;;42.78;30.10;;;;;;;10.83;100.00;99616.19;2063169;28;20758;-74
2021/09/03 04:19:34;;;;;;;43.70;29.88;;;;;;;10.82;100.00;99608.47;2063945;28;20231;-78
2021/09/03 04:20:40;;;;;;;46.63;31.20;;;;;;;10.83;100.00;99607.38;2066539;28;20231;-76
2021/09/03 04:21:41;;;;;;;48.13;31.75;;;;;;;10.85;100.00;99611.34;2063699;28;20228;-76
2021/09/03 04:22:44;;;;;;;43.80;30.90;;;;;;;10.89;100.00;99609.72;2063353;28;20237;-76
2021/09/03 04:23:46;;;;;;;42.22;29.92;;;;;;;10.91;100.00;99609.41;2064050;28;20228;-80
2021/09/03 04:24:50;;;;;;;43.78;31.58;;;;;;;10.92;100.00;99613.69;2063578;28;20224;-78
2021/09/03 04:25:51;;;;;;;49.15;32.13;;;;;;;10.90;100.00;99603.28;2063446;28;20221;-81
2021/09/03 04:26:56;;;;;;;47.42;32.40;;;;;;;10.92;100.00;99605.66;2063323;28;20228;-77
2021/09/03 04:27:57;;;;;;;46.65;32.78;;;;;;;10.95;100.00;99605.13;2063325;28;20228;-77
2021/09/03 04:29:01;;;;;;;44.30;33.37;;;;;;;10.95;100.00;99602.44;2064058;28;20223;-77
2021/09/03 04:30:04;;;;;;;49.40;32.28;;;;;;;10.97;100.00;99605.63;2063577;28;20702;-78
2021/09/03 04:31:06;;;;;;;47.40;31.73;;;;;;;10.96;100.00;99596.03;2063447;28;20583;-82
2021/09/03 04:32:09;;;;;;;45.10;31.63;;;;;;;11.00;100.00;99600.50;2064257;28;20232;-78
2021/09/03 04:33:11;;;;;;;47.42;31.98;;;;;;;10.97;100.00;99590.41;2064335;28;20250;-78
2021/09/03 04:34:13;;;;;;;48.80;32.65;;;;;;;11.02;100.00;99589.53;2063928;28;20778;-78
2021/09/03 04:35:17;;;;;;;45.37;31.47;;;;;;;11.02;100.00;99587.66;2063672;28;20630;-79
2021/09/03 04:36:22;;;;;;;49.40;30.88;;;;;;;11.05;100.00;99588.97;2056468;28;20225;-78
2021/09/03 04:37:26;;;;;;;44.85;30.55;;;;;;;11.11;100.00;99585.13;2056652;28;20321;-78
2021/09/03 04:38:31;;;;;;;51.50;31.20;;;;;;;11.11;100.00;99593.16;2056496;28;20829;-78
2021/09/03 04:39:34;;;;;;;42.67;30.10;;;;;;;11.12;100.00;99588.59;2063796;28;20274;-78
2021/09/03 04:40:37;;;;;;;47.30;30.52;;;;;;;11.14;100.00;99592.59;2064341;28;20267;-77
2021/09/03 04:41:39;;;;;;;40.97;30.00;;;;;;;11.13;100.00;99593.69;2056859;28;20253;-79
2021/09/03 04:42:43;;;;;;;44.85;31.38;;;;;;;11.14;100.00;99594.47;2056323;28;20232;-79
2021/09/03 04:43:48;;;;;;;44.38;31.30;;;;;;;11.16;100.00;99592.31;2072081;28;20714;-78
2021/09/03 04:44:51;;;;;;;43.13;29.90;;;;;;;11.17;100.00;99601.91;2074212;28;20277;-77
2021/09/03 04:45:55;;;;;;;44.05;29.60;;;;;;;11.18;100.00;99598.94;2065688;28;20754;-78
2021/09/03 04:46:59;;;;;;;50.90;31.45;;;;;;;11.22;100.00;99594.63;2056158;28;20225;-74
2021/09/03 04:48:01;;;;;;;45.83;30.35;;;;;;;11.24;100.00;99592.47;2063250;28;20221;-74
2021/09/03 04:49:02;;;;;;;49.33;30.83;;;;;;;11.26;100.00;99594.84;2063998;28;20587;-75
2021/09/03 04:50:08;;;;;;;45.90;31.07;;;;;;;11.26;100.00;99597.50;2063472;28;20296;-73
2021/09/03 04:51:10;;;;;;;50.10;31.10;;;;;;;11.26;100.00;99600.97;2053735;28;20680;-73
2021/09/03 04:52:13;;;;;;;42.25;30.67;;;;;;;11.26;100.00;99598.31;2063225;28;20319;-75
2021/09/03 04:53:16;;;;;;;51.20;31.38;;;;;;;11.27;100.00;99599.91;2064033;28;20220;-75
2021/09/03 04:54:22;;;;;;;43.17;31.08;;;;;;;11.28;100.00;99598.00;2064101;28;20224;-78
2021/09/03 04:55:23;;;;;;;48.35;31.17;;;;;;;11.28;100.00;99595.34;2063852;28;20233;-74
2021/09/03 04:56:28;;;;;;;45.37;31.70;;;;;;;11.32;100.00;99596.38;2064053;28;20225;-77
2021/09/03 04:57:30;;;;;;;47.03;30.95;;;;;;;11.32;100.00;99597.16;2064315;28;20236;-77